Hastings, Nebraska
Current Conditions -  °F | °C
As of 1:53 AM on Thursday 27 Nov 2014 (Local Time) from KHSI Reporting Station
Few Clouds Few Clouds  
Wind Chill: 16°   Ceiling: Unl
Heat Index: 16°   Visibility: 10mi
Dew Point: 12°   Wind: 3mph
Humidity: 84%   Direction: 80°E
Pressure: 30.41"   Gusts: NA
Location:  40.59°N, 98.39°W
Report Text: KHSI 270753Z AUTO 08003KT 10SM FEW110 M09/M11 A3041 RMK AO2 SLP325 T10891111
Loading
Personal Weather Stations






























Interactive Weather Map New forecast layout! Learn more

10-Day Weather Forecast

Advertisements
Track Severe Weather on mobile